createdAt,value
2022-08-22T00:00:55.674Z,20.2
2022-08-22T00:02:39.346Z,20.2
2022-08-22T00:04:23.031Z,20.2
2022-08-22T00:06:06.723Z,20.1
2022-08-22T00:07:50.463Z,20.1
2022-08-22T00:09:34.140Z,20.1
2022-08-22T00:11:17.833Z,20.1
2022-08-22T00:13:01.531Z,20.1
2022-08-22T00:14:45.234Z,20.1
2022-08-22T00:16:28.941Z,20.1
2022-08-22T00:18:12.636Z,20.1
2022-08-22T00:19:56.346Z,20.1
2022-08-22T00:21:40.041Z,20.1
2022-08-22T00:23:23.760Z,20.1
2022-08-22T00:25:07.463Z,20
2022-08-22T00:26:51.158Z,20
2022-08-22T00:28:34.887Z,20
2022-08-22T00:30:18.569Z,20
2022-08-22T00:32:02.267Z,20
2022-08-22T00:33:45.951Z,20
2022-08-22T00:35:29.674Z,20
2022-08-22T00:37:13.364Z,20
2022-08-22T00:38:57.061Z,20
2022-08-22T00:40:40.770Z,20
2022-08-22T00:42:24.472Z,20
2022-08-22T00:44:08.156Z,20
2022-08-22T00:45:51.871Z,20
2022-08-22T00:47:35.583Z,19.9
2022-08-22T00:49:19.261Z,19.9
2022-08-22T00:51:02.978Z,19.9
2022-08-22T00:52:46.675Z,19.9
2022-08-22T00:54:30.420Z,19.9
2022-08-22T00:56:14.089Z,19.9
2022-08-22T00:57:57.781Z,19.9
2022-08-22T00:59:41.484Z,19.9
2022-08-22T01:01:25.181Z,19.9
2022-08-22T01:03:08.885Z,19.9
2022-08-22T01:04:52.591Z,19.9
2022-08-22T01:06:36.316Z,19.9
2022-08-22T01:08:19.993Z,19.8
2022-08-22T01:10:03.681Z,19.8
2022-08-22T01:11:47.375Z,19.8
2022-08-22T01:13:31.089Z,19.8
2022-08-22T01:15:14.796Z,19.8
2022-08-22T01:16:58.489Z,19.8
2022-08-22T01:18:42.193Z,19.8
2022-08-22T01:20:25.896Z,19.8
2022-08-22T01:22:09.598Z,19.8
2022-08-22T01:23:53.303Z,19.8
2022-08-22T01:25:37.048Z,19.7
2022-08-22T01:27:20.684Z,19.7
2022-08-22T01:29:04.421Z,19.7
2022-08-22T01:30:48.094Z,19.7
2022-08-22T01:32:31.816Z,19.7
2022-08-22T01:34:15.495Z,19.7
2022-08-22T01:35:59.199Z,19.7
2022-08-22T01:37:42.915Z,19.6
2022-08-22T01:39:26.605Z,19.6
2022-08-22T01:41:10.320Z,19.7
2022-08-22T01:42:54.019Z,19.6
2022-08-22T01:44:37.711Z,19.7
2022-08-22T01:46:21.426Z,19.6
2022-08-22T01:48:05.128Z,19.6
2022-08-22T01:49:48.823Z,19.6
2022-08-22T01:51:32.520Z,19.6
2022-08-22T01:53:16.214Z,19.6
2022-08-22T01:54:59.930Z,19.6
2022-08-22T01:56:43.627Z,19.6
2022-08-22T01:58:27.352Z,19.6
2022-08-22T02:00:11.035Z,19.6
2022-08-22T02:01:54.751Z,19.6
2022-08-22T02:03:38.451Z,19.6
2022-08-22T02:05:22.141Z,19.6
2022-08-22T02:07:05.844Z,19.6
2022-08-22T02:08:49.535Z,19.5
2022-08-22T02:10:33.273Z,19.5
2022-08-22T02:12:16.940Z,19.5
2022-08-22T02:14:00.659Z,19.5
2022-08-22T02:15:44.356Z,19.5
2022-08-22T02:17:28.061Z,19.5
2022-08-22T02:19:11.759Z,19.5
2022-08-22T02:20:55.458Z,19.5
2022-08-22T02:22:39.167Z,19.5
2022-08-22T02:24:22.862Z,19.5
2022-08-22T02:26:06.568Z,19.5
2022-08-22T02:27:50.267Z,19.5
2022-08-22T02:29:33.953Z,19.5
2022-08-22T02:31:17.661Z,19.4
2022-08-22T02:33:01.375Z,19.5
2022-08-22T02:34:45.089Z,19.4
2022-08-22T02:36:28.780Z,19.4
2022-08-22T02:38:12.492Z,19.4
2022-08-22T02:39:56.182Z,19.4
2022-08-22T02:41:39.879Z,19.4
2022-08-22T02:43:23.598Z,19.4
2022-08-22T02:45:07.293Z,19.4
2022-08-22T02:46:50.985Z,19.4
2022-08-22T02:48:34.698Z,19.4
2022-08-22T02:50:18.397Z,19.4
2022-08-22T02:52:02.095Z,19.4
2022-08-22T02:53:45.789Z,19.4
2022-08-22T02:55:29.496Z,19.4
2022-08-22T02:57:13.211Z,19.3
2022-08-22T02:58:56.901Z,19.3
2022-08-22T03:00:40.609Z,19.3
2022-08-22T03:02:24.318Z,19.3
2022-08-22T03:04:08.013Z,19.3
2022-08-22T03:05:51.694Z,19.3
2022-08-22T03:07:35.413Z,19.3
2022-08-22T03:09:19.108Z,19.3
2022-08-22T03:11:02.819Z,19.3
2022-08-22T03:12:46.510Z,19.2
2022-08-22T03:14:30.220Z,19.2
2022-08-22T03:16:13.920Z,19.2
2022-08-22T03:17:57.629Z,19.2
2022-08-22T03:19:41.324Z,19.2
2022-08-22T03:23:08.735Z,19.2
2022-08-22T03:24:52.436Z,19.2
2022-08-22T03:26:36.145Z,19.2
2022-08-22T03:28:19.860Z,19.2
2022-08-22T03:30:03.535Z,19.2
2022-08-22T03:31:47.239Z,19.2
2022-08-22T03:33:30.939Z,19.2
2022-08-22T03:35:14.654Z,19.2
2022-08-22T03:36:58.354Z,19.1
2022-08-22T03:38:42.038Z,19.1
2022-08-22T03:40:25.759Z,19.1
2022-08-22T03:42:09.460Z,19.1
2022-08-22T03:43:53.152Z,19.1
2022-08-22T03:45:36.854Z,19.1
2022-08-22T03:47:20.549Z,19.1
2022-08-22T03:49:04.251Z,19.1
2022-08-22T03:50:47.969Z,19.1
2022-08-22T03:52:31.653Z,19.1
2022-08-22T03:54:15.374Z,19.1
2022-08-22T03:55:59.071Z,19
2022-08-22T03:57:42.776Z,19
2022-08-22T03:59:26.484Z,19
2022-08-22T04:01:10.251Z,19
2022-08-22T04:02:53.880Z,19
2022-08-22T04:04:37.580Z,19
2022-08-22T04:06:21.270Z,19
2022-08-22T04:08:04.972Z,19
2022-08-22T04:09:48.677Z,19
2022-08-22T04:11:32.384Z,19
2022-08-22T04:13:16.072Z,19
2022-08-22T04:14:59.783Z,19
2022-08-22T04:16:43.491Z,19
2022-08-22T04:18:27.205Z,19
2022-08-22T04:20:10.900Z,19
2022-08-22T04:21:54.582Z,19
2022-08-22T04:23:38.297Z,19
2022-08-22T04:25:21.995Z,19
2022-08-22T04:27:05.693Z,18.9
2022-08-22T04:28:49.397Z,18.9
2022-08-22T04:30:33.113Z,18.9
2022-08-22T04:32:16.806Z,18.9
2022-08-22T04:34:00.522Z,18.9
2022-08-22T04:35:44.224Z,18.9
2022-08-22T04:37:27.911Z,18.9
2022-08-22T04:39:11.608Z,18.9
2022-08-22T04:40:55.317Z,18.9
2022-08-22T04:42:39.023Z,18.9
2022-08-22T04:44:22.715Z,18.9
2022-08-22T04:46:06.408Z,18.9
2022-08-22T04:47:50.128Z,18.9
2022-08-22T04:49:33.819Z,18.9
2022-08-22T04:51:17.535Z,19
2022-08-22T04:53:01.239Z,19
2022-08-22T04:54:44.932Z,19
2022-08-22T04:56:28.652Z,19.1
2022-08-22T04:58:12.342Z,19.1
2022-08-22T04:59:56.038Z,19.1
2022-08-22T05:01:39.734Z,19.2
2022-08-22T05:03:23.477Z,19.3
2022-08-22T05:05:07.154Z,19.3
2022-08-22T05:06:50.853Z,19.4
2022-08-22T05:08:34.555Z,19.5
2022-08-22T05:10:18.258Z,19.5
2022-08-22T05:12:01.955Z,19.6
2022-08-22T05:13:45.679Z,19.6
2022-08-22T05:15:29.354Z,19.7
2022-08-22T05:17:13.050Z,19.8
2022-08-22T05:18:56.766Z,19.9
2022-08-22T05:20:40.474Z,20
2022-08-22T05:22:24.168Z,20
2022-08-22T05:24:07.861Z,20.1
2022-08-22T05:25:51.568Z,20.2
2022-08-22T05:27:35.327Z,20.3
2022-08-22T05:29:18.997Z,20.4
2022-08-22T05:31:02.679Z,20.5
2022-08-22T05:32:46.376Z,20.6
2022-08-22T05:34:30.079Z,20.7
2022-08-22T05:36:13.799Z,20.9
2022-08-22T05:37:57.469Z,20.9
2022-08-22T05:39:41.218Z,21.1
2022-08-22T05:41:24.879Z,21.3
2022-08-22T05:43:08.594Z,21.5
2022-08-22T05:44:52.285Z,21.6
2022-08-22T05:46:35.979Z,21.8
2022-08-22T05:48:19.682Z,22
2022-08-22T05:50:03.385Z,22.2
2022-08-22T05:51:47.075Z,22.3
2022-08-22T05:53:30.794Z,22.5
2022-08-22T05:55:14.501Z,22.6
2022-08-22T05:56:58.204Z,22.7
2022-08-22T05:58:41.914Z,22.7
2022-08-22T06:00:25.599Z,22.7
2022-08-22T06:02:09.304Z,22.8
2022-08-22T06:03:53.010Z,22.9
2022-08-22T06:05:36.723Z,23
2022-08-22T06:07:20.412Z,23.1
2022-08-22T06:09:04.113Z,23.1
2022-08-22T06:10:47.805Z,23.1
2022-08-22T06:12:31.491Z,23.2
2022-08-22T06:14:15.218Z,23.3
2022-08-22T06:15:58.900Z,23.3
2022-08-22T06:17:42.614Z,23.3
2022-08-22T06:19:26.312Z,23.3
2022-08-22T06:21:10.001Z,23.3
2022-08-22T06:22:53.717Z,23.3
2022-08-22T06:24:37.420Z,22.9
2022-08-22T06:26:21.111Z,21.6
2022-08-22T06:28:04.815Z,20.7
2022-08-22T06:29:48.503Z,20.3
2022-08-22T06:31:32.216Z,20.7
2022-08-22T06:33:15.897Z,21
2022-08-22T06:34:59.607Z,21.1
2022-08-22T06:36:43.308Z,21.1
2022-08-22T06:38:27.022Z,21.6
2022-08-22T06:40:10.702Z,21.7
2022-08-22T06:41:54.405Z,21.8
2022-08-22T06:43:38.111Z,21.8
2022-08-22T06:45:21.826Z,21.8
2022-08-22T06:47:05.509Z,21.8
2022-08-22T06:48:49.220Z,21.8
2022-08-22T06:50:32.916Z,21.8
2022-08-22T06:52:16.630Z,21.8
2022-08-22T06:54:00.323Z,21.8
2022-08-22T06:55:44.024Z,21.8
2022-08-22T06:57:27.763Z,21.8
2022-08-22T06:59:11.439Z,21.9
2022-08-22T07:00:55.150Z,21.8
2022-08-22T07:02:38.855Z,21.8
2022-08-22T07:04:22.540Z,21.7
2022-08-22T07:07:49.962Z,21.7
2022-08-22T07:09:33.666Z,21.8
2022-08-22T07:11:17.366Z,21.9
2022-08-22T07:13:01.058Z,22
2022-08-22T07:14:44.776Z,22.1
2022-08-22T07:16:28.456Z,22.2
2022-08-22T07:18:12.160Z,22.3
2022-08-22T07:19:55.864Z,22.3
2022-08-22T07:21:39.575Z,22.3
2022-08-22T07:23:23.274Z,22.3
2022-08-22T07:25:06.978Z,22.3
2022-08-22T07:26:50.664Z,22.3
2022-08-22T07:28:34.390Z,22.3
2022-08-22T07:30:18.091Z,22.3
2022-08-22T07:32:01.779Z,22.3
2022-08-22T07:33:45.507Z,22.3
2022-08-22T07:35:29.218Z,22.4
2022-08-22T07:37:12.890Z,22.5
2022-08-22T07:38:56.612Z,22.6
2022-08-22T07:40:40.304Z,22.7
2022-08-22T07:42:24.027Z,22.8
2022-08-22T07:44:07.704Z,22.8
2022-08-22T07:45:51.421Z,22.9
2022-08-22T07:47:35.125Z,22.9
2022-08-22T07:49:18.832Z,22.9
2022-08-22T07:51:02.524Z,23
2022-08-22T07:52:46.233Z,23
2022-08-22T07:54:29.927Z,23.1
2022-08-22T07:56:13.637Z,23.1
2022-08-22T07:57:57.351Z,23.1
2022-08-22T07:59:41.048Z,23.2
2022-08-22T08:01:24.789Z,23.2
2022-08-22T08:04:52.157Z,23.3
2022-08-22T08:06:35.873Z,23.4
2022-08-22T08:08:19.575Z,23.5
2022-08-22T08:10:03.273Z,23.5
2022-08-22T08:11:46.993Z,23.6
2022-08-22T08:13:30.664Z,23.7
2022-08-22T08:15:14.372Z,23.7
2022-08-22T08:16:58.059Z,23.8
2022-08-22T08:18:41.814Z,23.9
2022-08-22T08:20:25.467Z,24
2022-08-22T08:22:09.200Z,24.1
2022-08-22T08:23:52.858Z,24.3
2022-08-22T08:25:36.598Z,24.5
2022-08-22T08:27:20.271Z,24.7
2022-08-22T08:29:03.997Z,24.9
2022-08-22T08:30:47.677Z,25.2
2022-08-22T08:32:31.358Z,25.4
2022-08-22T08:34:15.069Z,25.6
2022-08-22T08:35:58.772Z,25.8
2022-08-22T08:37:42.466Z,26
2022-08-22T08:39:26.174Z,26.1
2022-08-22T08:41:09.881Z,26.2
2022-08-22T08:42:53.576Z,26.3
2022-08-22T08:44:37.274Z,26.4
2022-08-22T08:46:20.976Z,26.4
2022-08-22T08:48:04.695Z,26.3
2022-08-22T08:49:48.377Z,26.2
2022-08-22T08:51:32.090Z,26.1
2022-08-22T08:53:15.814Z,25.9
2022-08-22T08:54:59.514Z,25.7
2022-08-22T08:56:43.206Z,25.5
2022-08-22T08:58:26.898Z,25.4
2022-08-22T09:00:11.150Z,25.2
2022-08-22T09:01:54.305Z,25.1
2022-08-22T09:03:38.015Z,24.9
2022-08-22T09:05:21.744Z,24.8
2022-08-22T09:07:05.424Z,24.7
2022-08-22T09:08:49.127Z,24.6
2022-08-22T09:10:32.932Z,24.5
2022-08-22T09:12:16.540Z,24.4
2022-08-22T09:14:00.257Z,24.3
2022-08-22T09:15:43.919Z,24.3
2022-08-22T09:17:27.610Z,24.2
2022-08-22T09:19:11.325Z,24.2
2022-08-22T09:20:55.057Z,24.1
2022-08-22T09:22:38.700Z,24.1
2022-08-22T09:24:22.412Z,24
2022-08-22T09:26:06.105Z,24
2022-08-22T09:27:49.838Z,24
2022-08-22T09:29:33.519Z,23.9
2022-08-22T09:31:17.212Z,23.9
2022-08-22T09:33:00.917Z,23.9
2022-08-22T09:34:44.643Z,23.9
2022-08-22T09:36:28.354Z,23.9
2022-08-22T09:38:12.012Z,23.9
2022-08-22T09:39:55.709Z,23.9
2022-08-22T09:41:39.416Z,23.8
2022-08-22T09:43:23.141Z,23.8
2022-08-22T09:45:06.826Z,23.8
2022-08-22T09:46:50.541Z,23.8
2022-08-22T09:48:34.251Z,23.8
2022-08-22T09:50:17.947Z,23.8
2022-08-22T09:52:01.625Z,23.8
2022-08-22T09:53:45.330Z,23.8
2022-08-22T09:55:29.027Z,23.8
2022-08-22T09:57:12.743Z,23.8
2022-08-22T09:58:56.463Z,23.8
2022-08-22T10:00:40.242Z,23.8
2022-08-22T10:02:23.852Z,23.7
2022-08-22T10:04:07.552Z,23.7
2022-08-22T10:05:51.292Z,23.7
2022-08-22T10:07:34.946Z,23.7
2022-08-22T10:09:18.661Z,23.7
2022-08-22T10:11:02.389Z,23.7
2022-08-22T10:12:46.065Z,23.7
2022-08-22T10:14:29.811Z,23.7
2022-08-22T10:16:13.510Z,23.7
2022-08-22T10:17:57.154Z,23.7
2022-08-22T10:19:40.878Z,23.7
2022-08-22T10:21:24.604Z,23.7
2022-08-22T10:23:08.262Z,23.7
2022-08-22T10:24:51.985Z,23.7
2022-08-22T10:26:35.690Z,23.7
2022-08-22T10:28:19.343Z,23.7
2022-08-22T10:30:03.077Z,23.7
2022-08-22T10:31:46.751Z,23.7
2022-08-22T10:33:30.459Z,23.7
2022-08-22T10:35:14.189Z,23.7
2022-08-22T10:36:57.866Z,23.7
2022-08-22T10:38:41.599Z,23.7
2022-08-22T10:40:25.270Z,23.8
2022-08-22T10:42:08.981Z,23.7
2022-08-22T10:43:52.670Z,23.8
2022-08-22T10:45:36.373Z,23.7
2022-08-22T10:47:20.106Z,23.7
2022-08-22T10:49:03.764Z,23.7
2022-08-22T10:50:47.482Z,23.7
2022-08-22T10:52:31.280Z,23.7
2022-08-22T10:54:14.896Z,23.7
2022-08-22T10:55:59.638Z,23.7
2022-08-22T10:57:42.290Z,23.7
2022-08-22T10:59:25.999Z,23.7
2022-08-22T11:01:09.690Z,23.7
2022-08-22T11:02:53.415Z,23.7
2022-08-22T11:04:37.119Z,23.7
2022-08-22T11:06:20.813Z,23.7
2022-08-22T11:08:04.522Z,23.7
2022-08-22T11:09:48.222Z,23.7
2022-08-22T11:11:31.913Z,23.8
2022-08-22T11:13:15.612Z,23.7
2022-08-22T11:14:59.303Z,23.7
2022-08-22T11:16:43.032Z,23.7
2022-08-22T11:18:26.727Z,23.7
2022-08-22T11:20:10.424Z,23.7
2022-08-22T11:21:54.158Z,23.7
2022-08-22T11:23:37.845Z,23.8
2022-08-22T11:25:21.511Z,23.7
2022-08-22T11:27:05.236Z,23.7
2022-08-22T11:28:48.921Z,23.7
2022-08-22T11:30:32.636Z,23.7
2022-08-22T11:32:16.342Z,23.7
2022-08-22T11:34:00.095Z,23.7
2022-08-22T11:35:43.765Z,23.7
2022-08-22T11:37:27.464Z,23.7
2022-08-22T11:39:11.134Z,23.7
2022-08-22T11:40:54.885Z,23.8
2022-08-22T11:44:22.257Z,23.7
2022-08-22T11:46:05.953Z,23.7
2022-08-22T11:47:49.671Z,23.8
2022-08-22T11:49:33.350Z,23.8
2022-08-22T11:51:17.070Z,23.8
2022-08-22T11:53:00.772Z,23.8
2022-08-22T11:54:44.483Z,23.8
2022-08-22T11:56:28.160Z,23.8
2022-08-22T11:58:11.860Z,23.8
2022-08-22T11:59:55.573Z,23.8
2022-08-22T12:01:39.276Z,23.8
2022-08-22T12:03:22.977Z,23.8
2022-08-22T12:05:06.669Z,23.8
2022-08-22T12:06:50.468Z,23.8
2022-08-22T12:08:34.094Z,23.8
2022-08-22T12:10:17.784Z,23.8
2022-08-22T12:12:01.511Z,23.8
2022-08-22T12:13:45.197Z,23.8
2022-08-22T12:15:28.881Z,23.8
2022-08-22T12:17:12.593Z,23.9
2022-08-22T12:20:39.971Z,23.8
2022-08-22T12:25:51.078Z,23.8
2022-08-22T12:27:34.796Z,23.8
2022-08-22T12:29:18.493Z,23.8
2022-08-22T12:32:45.928Z,23.8
2022-08-22T12:34:29.607Z,23.8
2022-08-22T12:36:13.287Z,23.8
2022-08-22T12:37:57.032Z,23.8
2022-08-22T12:39:40.670Z,23.8
2022-08-22T12:41:24.393Z,23.8
2022-08-22T12:43:08.085Z,23.8
2022-08-22T12:44:51.823Z,23.8
2022-08-22T12:46:35.474Z,23.8
2022-08-22T12:48:19.182Z,23.9
2022-08-22T12:50:02.919Z,23.9
2022-08-22T12:51:46.593Z,23.9
2022-08-22T12:53:30.297Z,23.9
2022-08-22T12:55:14.016Z,23.9
2022-08-22T12:56:57.680Z,24
2022-08-22T12:58:41.389Z,24
2022-08-22T13:00:25.089Z,23.9
2022-08-22T13:02:08.818Z,23.9
2022-08-22T13:03:52.560Z,23.9
2022-08-22T13:05:36.245Z,23.9
2022-08-22T13:07:19.923Z,23.9
2022-08-22T13:09:03.612Z,23.9
2022-08-22T13:10:47.347Z,23.9
2022-08-22T13:12:31.006Z,23.9
2022-08-22T13:14:14.729Z,23.9
2022-08-22T13:15:58.424Z,23.9
2022-08-22T13:17:42.124Z,23.9
2022-08-22T13:19:25.860Z,23.9
2022-08-22T13:21:09.535Z,23.9
2022-08-22T13:22:53.205Z,23.8
2022-08-22T13:24:36.904Z,23.8
2022-08-22T13:26:20.601Z,23.8
2022-08-22T13:28:04.320Z,23.8
2022-08-22T13:29:48.023Z,23.8
2022-08-22T13:31:31.737Z,23.8
2022-08-22T13:33:15.421Z,23.8
2022-08-22T13:34:59.115Z,23.8
2022-08-22T13:36:42.815Z,23.8
2022-08-22T13:38:26.505Z,23.8
2022-08-22T13:40:10.194Z,23.8
2022-08-22T13:41:53.912Z,23.8
2022-08-22T13:43:37.639Z,23.8
2022-08-22T13:45:21.306Z,23.8
2022-08-22T13:47:05.003Z,23.8
2022-08-22T13:48:48.719Z,23.8
2022-08-22T13:50:32.408Z,23.8
2022-08-22T13:52:16.116Z,23.8
2022-08-22T13:53:59.823Z,23.8
2022-08-22T13:55:43.509Z,23.8
2022-08-22T13:57:27.237Z,23.8
2022-08-22T13:59:10.952Z,23.8
2022-08-22T14:00:54.639Z,23.8
2022-08-22T14:02:38.338Z,23.8
2022-08-22T14:04:22.046Z,23.8
2022-08-22T14:06:05.717Z,23.8
2022-08-22T14:07:49.434Z,23.8
2022-08-22T14:09:33.124Z,23.8
2022-08-22T14:11:16.842Z,23.8
2022-08-22T14:13:00.529Z,23.8
2022-08-22T14:14:44.214Z,23.8
2022-08-22T14:16:27.930Z,23.8
2022-08-22T14:18:11.644Z,23.8
2022-08-22T14:19:55.312Z,23.8
2022-08-22T14:21:39.011Z,23.8
2022-08-22T14:23:22.730Z,23.8
2022-08-22T14:25:06.438Z,23.8
2022-08-22T14:26:50.114Z,23.8
2022-08-22T14:28:33.800Z,23.8
2022-08-22T14:30:17.511Z,23.8
2022-08-22T14:32:01.209Z,23.8
2022-08-22T14:33:44.910Z,23.8
2022-08-22T14:35:28.608Z,23.8
2022-08-22T14:37:12.340Z,23.8
2022-08-22T14:38:56.033Z,23.8
2022-08-22T14:40:39.724Z,23.8
2022-08-22T14:42:23.459Z,23.8
2022-08-22T14:44:07.139Z,23.8
2022-08-22T14:45:50.855Z,23.8
2022-08-22T14:47:34.533Z,23.8
2022-08-22T14:49:18.238Z,23.8
2022-08-22T14:51:01.936Z,23.8
2022-08-22T14:52:45.682Z,23.8
2022-08-22T14:54:29.338Z,23.8
2022-08-22T14:56:13.037Z,23.7
2022-08-22T14:59:40.448Z,23.8
2022-08-22T15:01:24.144Z,23.8
2022-08-22T15:03:07.826Z,23.7
2022-08-22T15:04:51.547Z,23.8
2022-08-22T15:06:35.228Z,23.8
2022-08-22T15:08:18.934Z,23.8
2022-08-22T15:10:02.640Z,23.8
2022-08-22T15:11:46.330Z,23.7
2022-08-22T15:13:30.041Z,23.7
2022-08-22T15:15:13.728Z,23.7
2022-08-22T15:16:57.464Z,23.7
2022-08-22T15:18:41.149Z,23.7
2022-08-22T15:20:24.865Z,23.7
2022-08-22T15:22:08.543Z,23.7
2022-08-22T15:23:52.277Z,23.7
2022-08-22T15:25:35.956Z,23.7
2022-08-22T15:27:19.654Z,23.7
2022-08-22T15:29:03.403Z,23.7
2022-08-22T15:30:47.067Z,23.7
2022-08-22T15:32:30.765Z,23.7
2022-08-22T15:34:14.522Z,23.7
2022-08-22T15:35:58.190Z,23.8
2022-08-22T15:37:41.861Z,23.7
2022-08-22T15:39:25.575Z,23.7
2022-08-22T15:41:09.287Z,23.7
2022-08-22T15:42:53.012Z,23.8
2022-08-22T15:44:36.664Z,23.7
2022-08-22T15:46:20.366Z,23.8
2022-08-22T15:48:04.110Z,23.8
2022-08-22T15:49:47.779Z,23.8
2022-08-22T15:51:31.465Z,23.8
2022-08-22T15:53:15.164Z,23.8
2022-08-22T15:54:58.875Z,23.8
2022-08-22T15:56:42.579Z,23.8
2022-08-22T15:58:26.280Z,23.8
2022-08-22T16:00:09.995Z,23.8
2022-08-22T16:01:53.689Z,23.8
2022-08-22T16:03:37.366Z,23.8
2022-08-22T16:05:21.071Z,23.8
2022-08-22T16:07:04.762Z,23.8
2022-08-22T16:08:48.462Z,23.8
2022-08-22T16:10:32.219Z,23.8
2022-08-22T16:12:15.882Z,23.8
2022-08-22T16:13:59.582Z,23.8
2022-08-22T16:15:43.268Z,23.8
2022-08-22T16:17:26.971Z,23.8
2022-08-22T16:19:10.693Z,23.8
2022-08-22T16:20:54.372Z,23.8
2022-08-22T16:22:38.103Z,23.8
2022-08-22T16:24:21.779Z,23.8
2022-08-22T16:26:05.477Z,23.8
2022-08-22T16:27:49.201Z,23.8
2022-08-22T16:29:32.885Z,23.8
2022-08-22T16:31:16.604Z,23.8
2022-08-22T16:33:00.297Z,23.8
2022-08-22T16:34:43.991Z,23.8
2022-08-22T16:36:27.707Z,23.8
2022-08-22T16:38:11.399Z,23.8
2022-08-22T16:39:55.106Z,23.8
2022-08-22T16:41:38.800Z,23.8
2022-08-22T16:43:22.509Z,23.8
2022-08-22T16:45:06.196Z,23.8
2022-08-22T16:46:49.912Z,23.8
2022-08-22T16:48:33.586Z,23.8
2022-08-22T16:50:17.308Z,23.8
2022-08-22T16:52:01.039Z,23.8
2022-08-22T16:53:44.702Z,23.8
2022-08-22T16:55:28.392Z,23.8
2022-08-22T16:57:12.092Z,23.8
2022-08-22T16:58:55.783Z,23.8
2022-08-22T17:00:39.493Z,23.8
2022-08-22T17:02:23.190Z,23.8
2022-08-22T17:04:06.901Z,23.8
2022-08-22T17:05:50.588Z,23.8
2022-08-22T17:07:34.291Z,23.8
2022-08-22T17:09:17.986Z,23.8
2022-08-22T17:11:01.695Z,23.8
2022-08-22T17:12:45.409Z,23.8
2022-08-22T17:14:29.124Z,23.8
2022-08-22T17:16:12.810Z,23.8
2022-08-22T17:17:56.510Z,23.8
2022-08-22T17:19:40.217Z,23.8
2022-08-22T17:21:23.916Z,23.8
2022-08-22T17:23:07.631Z,23.8
2022-08-22T17:24:51.309Z,23.8
2022-08-22T17:26:35.000Z,23.8
2022-08-22T17:28:18.717Z,23.8
2022-08-22T17:30:02.433Z,23.8
2022-08-22T17:31:46.106Z,23.8
2022-08-22T17:33:29.808Z,23.8
2022-08-22T17:35:13.519Z,23.8
2022-08-22T17:36:57.233Z,23.8
2022-08-22T17:38:40.905Z,23.8
2022-08-22T17:40:24.598Z,23.8
2022-08-22T17:42:08.315Z,23.8
2022-08-22T17:43:52.015Z,23.7
2022-08-22T17:45:35.711Z,23.7
2022-08-22T17:47:19.415Z,23.7
2022-08-22T17:49:03.142Z,23.7
2022-08-22T17:50:46.814Z,23.7
2022-08-22T17:52:30.522Z,23.7
2022-08-22T17:54:14.224Z,23.7
2022-08-22T17:55:57.911Z,23.7
2022-08-22T17:57:41.626Z,23.7
2022-08-22T17:59:25.325Z,23.7
2022-08-22T18:01:09.028Z,23.7
2022-08-22T18:02:52.729Z,23.7
2022-08-22T18:04:36.443Z,23.7
2022-08-22T18:06:20.149Z,23.7
2022-08-22T18:08:03.827Z,23.6
2022-08-22T18:09:47.557Z,23.6
2022-08-22T18:11:31.232Z,23.6
2022-08-22T18:13:15.146Z,23.5
2022-08-22T18:14:58.636Z,23.5
2022-08-22T18:16:42.344Z,23.5
2022-08-22T18:18:26.054Z,23.5
2022-08-22T18:20:09.750Z,23.4
2022-08-22T18:21:53.425Z,23.4
2022-08-22T18:23:37.163Z,23.4
2022-08-22T18:25:20.831Z,23.3
2022-08-22T18:27:04.550Z,23.3
2022-08-22T18:28:48.237Z,23.3
2022-08-22T18:30:31.937Z,23.2
2022-08-22T18:32:15.628Z,23.2
2022-08-22T18:33:59.338Z,23.2
2022-08-22T18:35:43.024Z,23.1
2022-08-22T18:37:26.733Z,23.1
2022-08-22T18:39:10.446Z,23.1
2022-08-22T18:40:54.132Z,23
2022-08-22T18:42:37.842Z,23
2022-08-22T18:44:21.543Z,23
2022-08-22T18:46:05.247Z,22.9
2022-08-22T18:47:48.944Z,22.9
2022-08-22T18:49:32.654Z,22.9
2022-08-22T18:51:16.361Z,22.9
2022-08-22T18:53:00.055Z,22.8
2022-08-22T18:54:43.762Z,22.8
2022-08-22T18:56:27.472Z,22.8
2022-08-22T18:58:11.166Z,22.7
2022-08-22T18:59:54.875Z,22.7
2022-08-22T19:01:38.565Z,22.6
2022-08-22T19:03:22.286Z,22.6
2022-08-22T19:05:05.975Z,22.6
2022-08-22T19:06:49.675Z,22.5
2022-08-22T19:08:33.370Z,22.5
2022-08-22T19:10:17.092Z,22.5
2022-08-22T19:12:00.780Z,22.4
2022-08-22T19:13:44.471Z,22.4
2022-08-22T19:15:28.201Z,22.4
2022-08-22T19:17:11.892Z,22.3
2022-08-22T19:18:55.598Z,22.3
2022-08-22T19:20:39.285Z,22.3
2022-08-22T19:22:23.005Z,22.2
2022-08-22T19:24:06.707Z,22.2
2022-08-22T19:25:50.417Z,22.2
2022-08-22T19:27:34.101Z,22.2
2022-08-22T19:29:17.816Z,22.1
2022-08-22T19:31:01.521Z,22.1
2022-08-22T19:32:45.225Z,22
2022-08-22T19:34:28.923Z,22
2022-08-22T19:36:12.629Z,22
2022-08-22T19:37:56.321Z,22
2022-08-22T19:39:40.039Z,21.9
2022-08-22T19:41:23.729Z,22
2022-08-22T19:43:07.434Z,21.9
2022-08-22T19:44:51.132Z,21.9
2022-08-22T19:46:34.831Z,21.9
2022-08-22T19:48:18.531Z,21.9
2022-08-22T19:50:02.228Z,21.8
2022-08-22T19:51:45.937Z,21.8
2022-08-22T19:53:29.629Z,21.8
2022-08-22T19:55:13.342Z,21.8
2022-08-22T19:56:57.052Z,21.7
2022-08-22T19:58:40.737Z,21.7
2022-08-22T20:00:24.454Z,21.7
2022-08-22T20:02:08.145Z,21.7
2022-08-22T20:03:51.863Z,21.7
2022-08-22T20:05:35.569Z,21.6
2022-08-22T20:07:19.263Z,21.6
2022-08-22T20:09:02.966Z,21.6
2022-08-22T20:10:46.673Z,21.6
2022-08-22T20:12:30.385Z,21.5
2022-08-22T20:14:14.083Z,21.5
2022-08-22T20:15:57.791Z,21.5
2022-08-22T20:17:41.480Z,21.4
2022-08-22T20:19:25.179Z,21.4
2022-08-22T20:21:08.904Z,21.4
2022-08-22T20:22:52.603Z,21.4
2022-08-22T20:24:36.274Z,21.4
2022-08-22T20:26:19.986Z,21.4
2022-08-22T20:28:03.685Z,21.4
2022-08-22T20:29:47.407Z,21.4
2022-08-22T20:31:31.074Z,21.4
2022-08-22T20:33:14.774Z,21.3
2022-08-22T20:34:58.478Z,21.3
2022-08-22T20:36:42.193Z,21.3
2022-08-22T20:38:25.932Z,21.3
2022-08-22T20:40:09.608Z,21.3
2022-08-22T20:41:53.323Z,21.2
2022-08-22T20:43:37.000Z,21.2
2022-08-22T20:45:20.715Z,21.2
2022-08-22T20:47:04.402Z,21.2
2022-08-22T20:48:48.114Z,21.1
2022-08-22T20:50:31.816Z,21.1
2022-08-22T20:52:15.526Z,21.1
2022-08-22T20:53:59.202Z,21.1
2022-08-22T20:55:42.903Z,21.1
2022-08-22T20:57:26.604Z,21.1
2022-08-22T20:59:10.337Z,21
2022-08-22T21:00:54.017Z,21
2022-08-22T21:02:37.725Z,21
2022-08-22T21:04:21.432Z,21
2022-08-22T21:06:05.123Z,20.9
2022-08-22T21:07:48.815Z,20.9
2022-08-22T21:09:32.521Z,20.9
2022-08-22T21:11:16.222Z,20.8
2022-08-22T21:12:59.933Z,20.8
2022-08-22T21:14:43.628Z,20.8
2022-08-22T21:16:27.325Z,20.8
2022-08-22T21:18:11.029Z,20.8
2022-08-22T21:19:54.730Z,20.8
2022-08-22T21:21:38.444Z,20.7
2022-08-22T21:23:22.123Z,20.7
2022-08-22T21:25:05.832Z,20.7
2022-08-22T21:26:49.529Z,20.6
2022-08-22T21:28:33.246Z,20.7
2022-08-22T21:30:16.944Z,20.6
2022-08-22T21:32:00.646Z,20.6
2022-08-22T21:33:44.350Z,20.6
2022-08-22T21:35:28.064Z,20.6
2022-08-22T21:37:11.809Z,20.5
2022-08-22T21:38:55.451Z,20.5
2022-08-22T21:40:39.163Z,20.5
2022-08-22T21:42:22.865Z,20.5
2022-08-22T21:44:06.564Z,20.5
2022-08-22T21:45:50.254Z,20.5
2022-08-22T21:47:33.978Z,20.5
2022-08-22T21:49:17.655Z,20.5
2022-08-22T21:51:01.372Z,20.5
2022-08-22T21:52:45.066Z,20.4
2022-08-22T21:54:28.771Z,20.5
2022-08-22T21:56:12.482Z,20.4
2022-08-22T21:57:56.192Z,20.4
2022-08-22T21:59:39.888Z,20.4
2022-08-22T22:01:23.565Z,20.4
2022-08-22T22:03:07.272Z,20.4
2022-08-22T22:04:50.980Z,20.3
2022-08-22T22:06:34.685Z,20.3
2022-08-22T22:08:18.370Z,20.3
2022-08-22T22:10:02.078Z,20.4
2022-08-22T22:11:45.792Z,20.6
2022-08-22T22:13:29.484Z,20.7
2022-08-22T22:15:13.187Z,20.7
2022-08-22T22:16:56.879Z,20.8
2022-08-22T22:18:40.613Z,20.9
2022-08-22T22:20:24.307Z,21
2022-08-22T22:22:07.997Z,21
2022-08-22T22:23:51.697Z,21
2022-08-22T22:25:35.392Z,21.1
2022-08-22T22:27:19.102Z,21.1
2022-08-22T22:29:02.811Z,21.2
2022-08-22T22:30:46.489Z,21.2
2022-08-22T22:32:30.210Z,21.2
2022-08-22T22:34:13.911Z,21.2
2022-08-22T22:35:57.609Z,21.2
2022-08-22T22:37:41.303Z,21.2
2022-08-22T22:39:25.022Z,21.2
2022-08-22T22:41:08.699Z,21.3
2022-08-22T22:42:52.411Z,21.3
2022-08-22T22:44:36.105Z,21.3
2022-08-22T22:46:19.824Z,21.3
2022-08-22T22:48:03.516Z,21.3
2022-08-22T22:49:47.211Z,21.3
2022-08-22T22:51:30.926Z,21.3
2022-08-22T22:53:14.614Z,21.3
2022-08-22T22:54:58.321Z,21.3
2022-08-22T22:56:42.057Z,21.3
2022-08-22T22:58:25.732Z,21.3
2022-08-22T23:00:09.426Z,21.3
2022-08-22T23:01:53.139Z,21.3
2022-08-22T23:03:36.828Z,21.3
2022-08-22T23:05:20.536Z,21.3
2022-08-22T23:07:04.232Z,21.3
2022-08-22T23:08:47.921Z,21.3
2022-08-22T23:10:31.635Z,21.3
2022-08-22T23:12:15.337Z,21.3
2022-08-22T23:13:59.036Z,21.2
2022-08-22T23:15:42.745Z,21.2
2022-08-22T23:17:26.450Z,21.3
2022-08-22T23:19:10.145Z,21.2
2022-08-22T23:20:53.858Z,21.2
2022-08-22T23:22:37.570Z,21.2